Rio, Wisconsin
Current Conditions -  °F | °C
As of 11:53 PM on Thursday 30 Oct 2014 (Local Time) from KMSN Reporting Station
Overcast Overcast  
Wind Chill: 39°   Ceiling: 4300
Heat Index: 44°   Visibility: 10mi
Dew Point: 32°   Wind: 9mph
Humidity: 63%   Direction: 320°NW
Pressure: 30.07"   Gusts: NA
Location:  43.45°N, 89.24°W
Report Text: KMSN 310453Z AUTO 32008KT 10SM SCT033 OVC043 07/00 A3007 RMK AO2 PK WND 32027/0421 RAB24E34 SLP188 P0000 T00670000
Loading
Personal Weather Stations






























Interactive Weather Map
Tropical Storm Tracking
New forecast layout! Learn more

10-Day Weather Forecast

Advertisements
Track Severe Weather on mobile